sensor_id;sensor_type;location;lat;lon;timestamp;pressure;altitude;pressure_sealevel;temperature;humidity
48015;BME280;33780;51.034;7.120;2023-05-20T00:01:14;101367.19;;;15.80;49.62
48015;BME280;33780;51.034;7.120;2023-05-20T00:03:43;101371.91;;;15.78;49.12
48015;BME280;33780;51.034;7.120;2023-05-20T00:06:11;101373.19;;;15.74;49.36
48015;BME280;33780;51.034;7.120;2023-05-20T00:08:37;101369.09;;;15.69;49.35
48015;BME280;33780;51.034;7.120;2023-05-20T00:11:10;101366.00;;;15.64;49.81
48015;BME280;33780;51.034;7.120;2023-05-20T00:13:38;101368.13;;;15.61;49.96
48015;BME280;33780;51.034;7.120;2023-05-20T00:16:05;101370.25;;;15.57;49.70
48015;BME280;33780;51.034;7.120;2023-05-20T00:18:32;101365.00;;;15.56;49.90
48015;BME280;33780;51.034;7.120;2023-05-20T00:20:58;101365.16;;;15.54;49.77
48015;BME280;33780;51.034;7.120;2023-05-20T00:23:26;101377.94;;;15.52;49.87
48015;BME280;33780;51.034;7.120;2023-05-20T00:25:51;101370.16;;;15.49;49.89
48015;BME280;33780;51.034;7.120;2023-05-20T00:28:16;101372.31;;;15.46;49.92
48015;BME280;33780;51.034;7.120;2023-05-20T00:30:42;101372.56;;;15.42;50.17
48015;BME280;33780;51.034;7.120;2023-05-20T00:33:07;101358.38;;;15.40;50.15
48015;BME280;33780;51.034;7.120;2023-05-20T00:35:32;101367.63;;;15.38;50.24
48015;BME280;33780;51.034;7.120;2023-05-20T00:37:58;101357.13;;;15.35;50.15
48015;BME280;33780;51.034;7.120;2023-05-20T00:40:23;101368.06;;;15.33;50.43
48015;BME280;33780;51.034;7.120;2023-05-20T00:42:49;101357.59;;;15.30;50.24
48015;BME280;33780;51.034;7.120;2023-05-20T00:45:18;101348.78;;;15.28;50.26
48015;BME280;33780;51.034;7.120;2023-05-20T00:47:44;101362.44;;;15.27;50.48
48015;BME280;33780;51.034;7.120;2023-05-20T00:50:09;101356.31;;;15.25;50.42
48015;BME280;33780;51.034;7.120;2023-05-20T00:52:36;101353.75;;;15.23;50.56
48015;BME280;33780;51.034;7.120;2023-05-20T00:55:11;101350.66;;;15.18;50.60
48015;BME280;33780;51.034;7.120;2023-05-20T00:57:36;101348.25;;;15.15;50.65
48015;BME280;33780;51.034;7.120;2023-05-20T01:00:03;101343.31;;;15.10;50.82
48015;BME280;33780;51.034;7.120;2023-05-20T01:02:29;101339.31;;;15.05;50.77
48015;BME280;33780;51.034;7.120;2023-05-20T01:04:55;101340.47;;;15.02;50.97
48015;BME280;33780;51.034;7.120;2023-05-20T01:07:21;101330.69;;;15.01;50.66
48015;BME280;33780;51.034;7.120;2023-05-20T01:09:46;101335.38;;;14.99;51.06
48015;BME280;33780;51.034;7.120;2023-05-20T01:12:26;101333.97;;;14.95;51.35
48015;BME280;33780;51.034;7.120;2023-05-20T01:15:02;101325.34;;;14.92;51.01
48015;BME280;33780;51.034;7.120;2023-05-20T01:17:30;101316.66;;;14.88;51.01
48015;BME280;33780;51.034;7.120;2023-05-20T01:19:58;101319.81;;;14.84;51.33
48015;BME280;33780;51.034;7.120;2023-05-20T01:22:28;101329.03;;;14.81;51.01
48015;BME280;33780;51.034;7.120;2023-05-20T01:24:53;101324.78;;;14.78;51.20
48015;BME280;33780;51.034;7.120;2023-05-20T01:27:20;101321.53;;;14.75;51.29
48015;BME280;33780;51.034;7.120;2023-05-20T01:29:47;101324.63;;;14.70;51.45
48015;BME280;33780;51.034;7.120;2023-05-20T01:32:19;101319.69;;;14.66;51.58
48015;BME280;33780;51.034;7.120;2023-05-20T01:34:47;101315.59;;;14.62;51.41
48015;BME280;33780;51.034;7.120;2023-05-20T01:37:13;101309.63;;;14.58;51.63
48015;BME280;33780;51.034;7.120;2023-05-20T01:39:40;101313.31;;;14.57;51.59
48015;BME280;33780;51.034;7.120;2023-05-20T01:42:07;101318.00;;;14.55;51.59
48015;BME280;33780;51.034;7.120;2023-05-20T01:44:33;101320.97;;;14.52;51.81
48015;BME280;33780;51.034;7.120;2023-05-20T01:46:59;101316.72;;;14.49;51.86
48015;BME280;33780;51.034;7.120;2023-05-20T01:49:25;101320.53;;;14.47;52.04
48015;BME280;33780;51.034;7.120;2023-05-20T01:51:51;101315.44;;;14.44;51.95
48015;BME280;33780;51.034;7.120;2023-05-20T01:54:16;101312.03;;;14.42;52.25
48015;BME280;33780;51.034;7.120;2023-05-20T01:56:41;101313.16;;;14.39;52.41
48015;BME280;33780;51.034;7.120;2023-05-20T01:59:06;101307.19;;;14.36;52.31
48015;BME280;33780;51.034;7.120;2023-05-20T02:01:34;101308.19;;;14.35;52.27
48015;BME280;33780;51.034;7.120;2023-05-20T02:04:00;101309.47;;;14.31;52.44
48015;BME280;33780;51.034;7.120;2023-05-20T02:06:25;101299.81;;;14.28;52.42
48015;BME280;33780;51.034;7.120;2023-05-20T02:08:57;101304.66;;;14.25;52.74
48015;BME280;33780;51.034;7.120;2023-05-20T02:11:23;101297.84;;;14.20;52.77
48015;BME280;33780;51.034;7.120;2023-05-20T02:13:49;101301.78;;;14.16;52.66
48015;BME280;33780;51.034;7.120;2023-05-20T02:16:23;101301.22;;;14.13;53.24
48015;BME280;33780;51.034;7.120;2023-05-20T02:18:50;101308.59;;;14.11;53.03
48015;BME280;33780;51.034;7.120;2023-05-20T02:21:21;101301.66;;;14.08;53.14
48015;BME280;33780;51.034;7.120;2023-05-20T02:23:49;101298.41;;;14.05;53.31
48015;BME280;33780;51.034;7.120;2023-05-20T02:26:15;101301.25;;;14.03;53.23
48015;BME280;33780;51.034;7.120;2023-05-20T02:28:40;101298.78;;;14.00;53.31
48015;BME280;33780;51.034;7.120;2023-05-20T02:31:10;101294.69;;;13.96;53.65
48015;BME280;33780;51.034;7.120;2023-05-20T02:33:36;101292.28;;;13.93;53.60
48015;BME280;33780;51.034;7.120;2023-05-20T02:36:01;101297.09;;;13.89;53.52
48015;BME280;33780;51.034;7.120;2023-05-20T02:38:26;101286.63;;;13.86;53.92
48015;BME280;33780;51.034;7.120;2023-05-20T02:40:52;101294.97;;;13.83;53.58
48015;BME280;33780;51.034;7.120;2023-05-20T02:43:19;101295.22;;;13.80;53.62
48015;BME280;33780;51.034;7.120;2023-05-20T02:45:48;101286.59;;;13.77;53.89
48015;BME280;33780;51.034;7.120;2023-05-20T02:48:13;101285.75;;;13.76;54.01
48015;BME280;33780;51.034;7.120;2023-05-20T02:50:44;101283.31;;;13.73;54.28
48015;BME280;33780;51.034;7.120;2023-05-20T02:53:10;101289.69;;;13.72;54.15
48015;BME280;33780;51.034;7.120;2023-05-20T02:55:35;101290.69;;;13.71;54.05
48015;BME280;33780;51.034;7.120;2023-05-20T02:58:01;101283.59;;;13.70;54.12
48015;BME280;33780;51.034;7.120;2023-05-20T03:00:26;101288.28;;;13.68;54.43
48015;BME280;33780;51.034;7.120;2023-05-20T03:02:54;101286.72;;;13.66;54.10
48015;BME280;33780;51.034;7.120;2023-05-20T03:05:19;101284.28;;;13.63;54.28
48015;BME280;33780;51.034;7.120;2023-05-20T03:07:45;101279.03;;;13.61;54.69
48015;BME280;33780;51.034;7.120;2023-05-20T03:10:10;101274.66;;;13.60;54.51
48015;BME280;33780;51.034;7.120;2023-05-20T03:12:36;101283.72;;;13.59;54.55
48015;BME280;33780;51.034;7.120;2023-05-20T03:15:01;101270.41;;;13.57;55.04
48015;BME280;33780;51.034;7.120;2023-05-20T03:17:27;101271.53;;;13.55;54.83
48015;BME280;33780;51.034;7.120;2023-05-20T03:19:53;101279.03;;;13.51;55.14
48015;BME280;33780;51.034;7.120;2023-05-20T03:22:18;101272.09;;;13.49;54.99
48015;BME280;33780;51.034;7.120;2023-05-20T03:25:01;101270.50;;;13.46;55.17
48015;BME280;33780;51.034;7.120;2023-05-20T03:27:26;101268.81;;;13.45;55.21
48015;BME280;33780;51.034;7.120;2023-05-20T03:29:52;101264.41;;;13.44;55.14
48015;BME280;33780;51.034;7.120;2023-05-20T03:32:19;101276.28;;;13.42;54.94
48015;BME280;33780;51.034;7.120;2023-05-20T03:34:45;101281.94;;;13.39;56.01
48015;BME280;33780;51.034;7.120;2023-05-20T03:37:10;101266.94;;;13.36;55.47
48015;BME280;33780;51.034;7.120;2023-05-20T03:39:35;101274.31;;;13.34;55.87
48015;BME280;33780;51.034;7.120;2023-05-20T03:42:04;101268.50;;;13.29;56.14
48015;BME280;33780;51.034;7.120;2023-05-20T03:44:29;101265.81;;;13.29;55.77
48015;BME280;33780;51.034;7.120;2023-05-20T03:46:55;101271.19;;;13.29;55.91
48015;BME280;33780;51.034;7.120;2023-05-20T03:49:20;101267.66;;;13.28;56.05
48015;BME280;33780;51.034;7.120;2023-05-20T03:51:45;101275.81;;;13.27;56.20
48015;BME280;33780;51.034;7.120;2023-05-20T03:54:11;101265.06;;;13.27;56.25
48015;BME280;33780;51.034;7.120;2023-05-20T03:56:36;101270.44;;;13.27;56.45
48015;BME280;33780;51.034;7.120;2023-05-20T03:59:01;101271.28;;;13.27;56.25
48015;BME280;33780;51.034;7.120;2023-05-20T04:01:26;101270.06;;;13.32;56.38
48015;BME280;33780;51.034;7.120;2023-05-20T04:03:52;101265.38;;;13.34;56.44
48015;BME280;33780;51.034;7.120;2023-05-20T04:06:17;101266.94;;;13.36;56.60
48015;BME280;33780;51.034;7.120;2023-05-20T04:08:42;101267.66;;;13.38;56.49
48015;BME280;33780;51.034;7.120;2023-05-20T04:11:13;101272.75;;;13.41;56.49
48015;BME280;33780;51.034;7.120;2023-05-20T04:13:41;101260.75;;;13.45;56.89
48015;BME280;33780;51.034;7.120;2023-05-20T04:16:07;101264.88;;;13.49;56.98
48015;BME280;33780;51.034;7.120;2023-05-20T04:18:32;101263.88;;;13.50;57.83
48015;BME280;33780;51.034;7.120;2023-05-20T04:21:00;101263.03;;;13.50;57.63
48015;BME280;33780;51.034;7.120;2023-05-20T04:23:28;101262.47;;;13.56;57.08
48015;BME280;33780;51.034;7.120;2023-05-20T04:25:54;101253.13;;;13.60;57.20
48015;BME280;33780;51.034;7.120;2023-05-20T04:28:19;101248.31;;;13.64;57.17
48015;BME280;33780;51.034;7.120;2023-05-20T04:30:48;101256.72;;;13.70;57.48
48015;BME280;33780;51.034;7.120;2023-05-20T04:33:14;101255.28;;;13.76;57.24
48015;BME280;33780;51.034;7.120;2023-05-20T04:35:47;101251.47;;;13.78;57.47
48015;BME280;33780;51.034;7.120;2023-05-20T04:38:15;101256.56;;;13.81;58.21
48015;BME280;33780;51.034;7.120;2023-05-20T04:40:40;101260.84;;;13.84;57.98
48015;BME280;33780;51.034;7.120;2023-05-20T04:43:06;101252.34;;;13.88;57.16
48015;BME280;33780;51.034;7.120;2023-05-20T04:45:31;101251.06;;;13.93;57.05
48015;BME280;33780;51.034;7.120;2023-05-20T04:50:36;101256.63;;;14.01;57.20
48015;BME280;33780;51.034;7.120;2023-05-20T04:53:01;101253.47;;;13.96;57.52
48015;BME280;33780;51.034;7.120;2023-05-20T04:55:27;101251.63;;;13.96;57.50
48015;BME280;33780;51.034;7.120;2023-05-20T04:57:52;101251.34;;;13.99;57.60
48015;BME280;33780;51.034;7.120;2023-05-20T05:00:18;101257.19;;;14.04;57.08
48015;BME280;33780;51.034;7.120;2023-05-20T05:02:43;101260.28;;;14.09;57.98
48015;BME280;33780;51.034;7.120;2023-05-20T05:05:08;101253.47;;;14.15;57.03
48015;BME280;33780;51.034;7.120;2023-05-20T05:07:34;101259.16;;;14.21;57.11
48015;BME280;33780;51.034;7.120;2023-05-20T05:09:59;101255.47;;;14.23;57.33
48015;BME280;33780;51.034;7.120;2023-05-20T05:12:25;101263.28;;;14.26;57.11
48015;BME280;33780;51.034;7.120;2023-05-20T05:14:50;101267.22;;;14.31;57.61
48015;BME280;33780;51.034;7.120;2023-05-20T05:17:16;101261.28;;;14.37;57.29
48015;BME280;33780;51.034;7.120;2023-05-20T05:19:41;101252.66;;;14.43;57.02
48015;BME280;33780;51.034;7.120;2023-05-20T05:22:06;101249.25;;;14.51;56.86
48015;BME280;33780;51.034;7.120;2023-05-20T05:24:31;101246.84;;;14.58;56.93
48015;BME280;33780;51.034;7.120;2023-05-20T05:29:46;101238.56;;;14.69;56.69
48015;BME280;33780;51.034;7.120;2023-05-20T05:32:12;101238.28;;;14.72;56.81
48015;BME280;33780;51.034;7.120;2023-05-20T05:34:47;101243.66;;;14.72;56.71
48015;BME280;33780;51.034;7.120;2023-05-20T05:37:15;101239.69;;;14.76;56.66
48015;BME280;33780;51.034;7.120;2023-05-20T05:39:50;101234.72;;;14.81;56.56
48015;BME280;33780;51.034;7.120;2023-05-20T05:42:16;101229.56;;;14.88;56.49
48015;BME280;33780;51.034;7.120;2023-05-20T05:44:47;101238.94;;;14.93;56.74
48015;BME280;33780;51.034;7.120;2023-05-20T05:47:13;101227.72;;;14.98;56.23
48015;BME280;33780;51.034;7.120;2023-05-20T05:49:38;101229.97;;;15.02;56.21
48015;BME280;33780;51.034;7.120;2023-05-20T05:52:09;101223.09;;;15.08;55.94
48015;BME280;33780;51.034;7.120;2023-05-20T05:54:40;101222.84;;;15.11;55.87
48015;BME280;33780;51.034;7.120;2023-05-20T05:57:05;101214.91;;;15.09;55.80
48015;BME280;33780;51.034;7.120;2023-05-20T05:59:31;101212.06;;;15.11;55.69
48015;BME280;33780;51.034;7.120;2023-05-20T06:01:57;101216.84;;;15.17;55.46
48015;BME280;33780;51.034;7.120;2023-05-20T06:04:22;101226.38;;;15.11;55.96
48015;BME280;33780;51.034;7.120;2023-05-20T06:06:47;101231.09;;;15.09;56.06
48015;BME280;33780;51.034;7.120;2023-05-20T06:09:13;101220.00;;;15.13;55.95
48015;BME280;33780;51.034;7.120;2023-05-20T06:11:38;101222.22;;;15.17;55.55
48015;BME280;33780;51.034;7.120;2023-05-20T06:14:06;101224.31;;;15.23;55.50
48015;BME280;33780;51.034;7.120;2023-05-20T06:16:31;101216.34;;;15.31;55.57
48015;BME280;33780;51.034;7.120;2023-05-20T06:18:56;101215.91;;;15.36;55.55
48015;BME280;33780;51.034;7.120;2023-05-20T06:21:22;101217.28;;;15.40;55.50
48015;BME280;33780;51.034;7.120;2023-05-20T06:23:48;101213.59;;;15.41;55.33
48015;BME280;33780;51.034;7.120;2023-05-20T06:26:13;101219.41;;;15.46;55.24
48015;BME280;33780;51.034;7.120;2023-05-20T06:28:38;101208.84;;;15.53;55.19
48015;BME280;33780;51.034;7.120;2023-05-20T06:31:04;101214.34;;;15.61;54.92
48015;BME280;33780;51.034;7.120;2023-05-20T06:33:30;101202.41;;;15.63;55.31
48015;BME280;33780;51.034;7.120;2023-05-20T06:35:56;101208.81;;;15.62;54.72
48015;BME280;33780;51.034;7.120;2023-05-20T06:38:21;101209.19;;;15.67;54.93
48015;BME280;33780;51.034;7.120;2023-05-20T06:40:47;101208.03;;;15.70;54.85
48015;BME280;33780;51.034;7.120;2023-05-20T06:43:14;101203.88;;;15.76;54.97
48015;BME280;33780;51.034;7.120;2023-05-20T06:45:39;101198.31;;;15.77;55.02
48015;BME280;33780;51.034;7.120;2023-05-20T06:48:04;101200.28;;;15.85;54.83
48015;BME280;33780;51.034;7.120;2023-05-20T06:50:30;101196.78;;;15.92;54.88
48015;BME280;33780;51.034;7.120;2023-05-20T06:52:55;101200.75;;;15.98;54.82
48015;BME280;33780;51.034;7.120;2023-05-20T06:55:20;101197.41;;;16.04;54.87
48015;BME280;33780;51.034;7.120;2023-05-20T06:57:46;101192.38;;;16.09;54.68
48015;BME280;33780;51.034;7.120;2023-05-20T07:00:11;101197.16;;;16.15;54.63
48015;BME280;33780;51.034;7.120;2023-05-20T07:02:38;101194.69;;;16.22;54.84
48015;BME280;33780;51.034;7.120;2023-05-20T07:05:04;101186.25;;;16.25;54.86
48015;BME280;33780;51.034;7.120;2023-05-20T07:07:29;101196.59;;;16.29;54.76
48015;BME280;33780;51.034;7.120;2023-05-20T07:09:56;101183.78;;;16.31;54.35
48015;BME280;33780;51.034;7.120;2023-05-20T07:12:21;101191.28;;;16.38;54.72
48015;BME280;33780;51.034;7.120;2023-05-20T07:14:46;101195.88;;;16.45;54.70
48015;BME280;33780;51.034;7.120;2023-05-20T07:17:12;101197.25;;;16.49;54.34
48015;BME280;33780;51.034;7.120;2023-05-20T07:19:37;101186.28;;;16.51;54.63
48015;BME280;33780;51.034;7.120;2023-05-20T07:22:02;101186.81;;;16.54;54.50
48015;BME280;33780;51.034;7.120;2023-05-20T07:24:27;101182.78;;;16.58;54.53
48015;BME280;33780;51.034;7.120;2023-05-20T07:26:53;101177.06;;;16.61;54.54
48015;BME280;33780;51.034;7.120;2023-05-20T07:29:18;101179.75;;;16.61;53.72
48015;BME280;33780;51.034;7.120;2023-05-20T07:31:43;101176.22;;;16.61;54.03
48015;BME280;33780;51.034;7.120;2023-05-20T07:34:08;101167.50;;;16.67;54.12
48015;BME280;33780;51.034;7.120;2023-05-20T07:36:34;101176.66;;;16.74;54.01
48015;BME280;33780;51.034;7.120;2023-05-20T07:38:59;101169.09;;;16.78;53.94
48015;BME280;33780;51.034;7.120;2023-05-20T07:41:24;101171.63;;;16.79;53.96
48015;BME280;33780;51.034;7.120;2023-05-20T07:43:50;101165.56;;;16.85;53.99
48015;BME280;33780;51.034;7.120;2023-05-20T07:46:15;101169.50;;;16.91;53.72
48015;BME280;33780;51.034;7.120;2023-05-20T07:48:41;101168.00;;;16.97;54.01
48015;BME280;33780;51.034;7.120;2023-05-20T07:51:06;101169.19;;;17.02;54.32
48015;BME280;33780;51.034;7.120;2023-05-20T07:53:31;101176.00;;;17.06;53.45
48015;BME280;33780;51.034;7.120;2023-05-20T07:55:57;101161.75;;;17.04;53.15
48015;BME280;33780;51.034;7.120;2023-05-20T07:58:23;101158.91;;;17.06;53.43
48015;BME280;33780;51.034;7.120;2023-05-20T08:00:48;101162.97;;;17.10;53.53
48015;BME280;33780;51.034;7.120;2023-05-20T08:03:13;101155.38;;;17.13;53.50
48015;BME280;33780;51.034;7.120;2023-05-20T08:05:40;101160.78;;;17.13;53.25
48015;BME280;33780;51.034;7.120;2023-05-20T08:08:06;101159.28;;;17.19;53.72
48015;BME280;33780;51.034;7.120;2023-05-20T08:10:31;101150.00;;;17.21;53.34
48015;BME280;33780;51.034;7.120;2023-05-20T08:12:56;101158.47;;;17.27;53.27
48015;BME280;33780;51.034;7.120;2023-05-20T08:15:22;101166.78;;;17.33;53.41
48015;BME280;33780;51.034;7.120;2023-05-20T08:17:47;101170.31;;;17.34;52.77
48015;BME280;33780;51.034;7.120;2023-05-20T08:20:12;101157.47;;;17.36;52.99
48015;BME280;33780;51.034;7.120;2023-05-20T08:22:38;101165.09;;;17.40;53.01
48015;BME280;33780;51.034;7.120;2023-05-20T08:25:07;101155.47;;;17.46;52.98
48015;BME280;33780;51.034;7.120;2023-05-20T08:27:34;101157.34;;;17.53;52.82
48015;BME280;33780;51.034;7.120;2023-05-20T08:29:59;101161.78;;;17.63;52.76
48015;BME280;33780;51.034;7.120;2023-05-20T08:32:25;101161.97;;;17.69;52.71
48015;BME280;33780;51.034;7.120;2023-05-20T08:34:50;101149.13;;;17.71;52.67
48015;BME280;33780;51.034;7.120;2023-05-20T08:37:15;101153.00;;;17.77;53.01
48015;BME280;33780;51.034;7.120;2023-05-20T08:39:41;101158.41;;;17.77;52.45
48015;BME280;33780;51.034;7.120;2023-05-20T08:42:07;101157.09;;;17.81;52.35
48015;BME280;33780;51.034;7.120;2023-05-20T08:44:33;101162.16;;;17.84;52.49
48015;BME280;33780;51.034;7.120;2023-05-20T08:47:00;101152.00;;;17.86;52.80
48015;BME280;33780;51.034;7.120;2023-05-20T08:49:28;101151.84;;;17.88;52.71
48015;BME280;33780;51.034;7.120;2023-05-20T08:51:53;101154.72;;;17.94;52.93
48015;BME280;33780;51.034;7.120;2023-05-20T08:54:20;101150.50;;;18.00;52.72
48015;BME280;33780;51.034;7.120;2023-05-20T08:56:47;101148.97;;;18.05;52.43
48015;BME280;33780;51.034;7.120;2023-05-20T08:59:13;101149.97;;;18.12;52.65
48015;BME280;33780;51.034;7.120;2023-05-20T09:01:41;101144.91;;;18.18;52.53
48015;BME280;33780;51.034;7.120;2023-05-20T09:04:09;101152.34;;;18.24;52.47
48015;BME280;33780;51.034;7.120;2023-05-20T09:06:45;101150.63;;;18.31;52.20
48015;BME280;33780;51.034;7.120;2023-05-20T09:09:11;101157.06;;;18.38;52.17
48015;BME280;33780;51.034;7.120;2023-05-20T09:11:38;101145.53;;;18.44;51.75
48015;BME280;33780;51.034;7.120;2023-05-20T09:14:04;101148.91;;;18.46;50.92
48015;BME280;33780;51.034;7.120;2023-05-20T09:16:30;101146.88;;;18.48;51.08
48015;BME280;33780;51.034;7.120;2023-05-20T09:18:55;101139.09;;;18.53;51.36
48015;BME280;33780;51.034;7.120;2023-05-20T09:24:12;101153.81;;;18.67;51.65
48015;BME280;33780;51.034;7.120;2023-05-20T09:26:37;101151.25;;;18.74;51.29
48015;BME280;33780;51.034;7.120;2023-05-20T09:32:27;101147.84;;;18.80;51.30
48015;BME280;33780;51.034;7.120;2023-05-20T09:34:53;101152.22;;;18.89;51.28
48015;BME280;33780;51.034;7.120;2023-05-20T09:37:36;101137.59;;;18.98;51.27
48015;BME280;33780;51.034;7.120;2023-05-20T09:40:24;101128.59;;;19.06;50.84
48015;BME280;33780;51.034;7.120;2023-05-20T09:43:01;101131.06;;;19.15;51.09
48015;BME280;33780;51.034;7.120;2023-05-20T09:45:33;101131.03;;;19.23;50.90
48015;BME280;33780;51.034;7.120;2023-05-20T09:48:37;101132.84;;;19.31;50.29
48015;BME280;33780;51.034;7.120;2023-05-20T09:51:05;101138.28;;;19.31;49.72
48015;BME280;33780;51.034;7.120;2023-05-20T09:53:34;101136.91;;;19.35;50.44
48015;BME280;33780;51.034;7.120;2023-05-20T09:56:02;101130.78;;;19.41;50.13
48015;BME280;33780;51.034;7.120;2023-05-20T09:58:35;101137.72;;;19.44;49.57
48015;BME280;33780;51.034;7.120;2023-05-20T10:01:01;101140.59;;;19.42;49.36
48015;BME280;33780;51.034;7.120;2023-05-20T10:03:27;101136.53;;;19.38;49.20
48015;BME280;33780;51.034;7.120;2023-05-20T10:09:41;101136.31;;;19.48;49.93
48015;BME280;33780;51.034;7.120;2023-05-20T10:12:30;101135.09;;;19.50;49.96
48015;BME280;33780;51.034;7.120;2023-05-20T10:17:50;101144.94;;;19.51;49.65
48015;BME280;33780;51.034;7.120;2023-05-20T10:20:42;101144.94;;;19.51;49.52
48015;BME280;33780;51.034;7.120;2023-05-20T10:23:18;101140.53;;;19.50;49.40
48015;BME280;33780;51.034;7.120;2023-05-20T10:25:49;101137.72;;;19.44;48.75
48015;BME280;33780;51.034;7.120;2023-05-20T10:28:44;101147.91;;;19.42;49.04
48015;BME280;33780;51.034;7.120;2023-05-20T10:31:20;101148.09;;;19.40;49.22
48015;BME280;33780;51.034;7.120;2023-05-20T10:33:47;101140.44;;;19.36;49.72
48015;BME280;33780;51.034;7.120;2023-05-20T10:36:24;101151.00;;;19.30;48.89
48015;BME280;33780;51.034;7.120;2023-05-20T10:38:57;101152.94;;;19.22;49.09
48015;BME280;33780;51.034;7.120;2023-05-20T10:41:27;101153.44;;;19.17;49.37
48015;BME280;33780;51.034;7.120;2023-05-20T10:44:05;101148.19;;;19.16;49.83
48015;BME280;33780;51.034;7.120;2023-05-20T10:46:32;101142.78;;;19.16;50.05
48015;BME280;33780;51.034;7.120;2023-05-20T10:49:33;101144.63;;;19.15;49.78
48015;BME280;33780;51.034;7.120;2023-05-20T10:52:21;101144.09;;;19.20;50.24
48015;BME280;33780;51.034;7.120;2023-05-20T10:54:58;101136.59;;;19.30;50.12
48015;BME280;33780;51.034;7.120;2023-05-20T10:57:45;101130.25;;;19.38;50.26
48015;BME280;33780;51.034;7.120;2023-05-20T11:00:14;101126.66;;;19.45;50.22
48015;BME280;33780;51.034;7.120;2023-05-20T11:02:40;101126.97;;;19.50;50.08
48015;BME280;33780;51.034;7.120;2023-05-20T11:05:10;101120.84;;;19.56;50.13
48015;BME280;33780;51.034;7.120;2023-05-20T11:07:36;101118.06;;;19.65;50.29
48015;BME280;33780;51.034;7.120;2023-05-20T11:10:07;101113.41;;;19.73;49.71
48015;BME280;33780;51.034;7.120;2023-05-20T11:12:35;101129.84;;;19.80;49.98
48015;BME280;33780;51.034;7.120;2023-05-20T11:15:04;101122.84;;;19.85;49.56
48015;BME280;33780;51.034;7.120;2023-05-20T11:17:29;101114.13;;;19.90;49.53
48015;BME280;33780;51.034;7.120;2023-05-20T11:19:58;101104.59;;;19.94;49.62
48015;BME280;33780;51.034;7.120;2023-05-20T11:22:26;101100.31;;;20.00;49.65
48015;BME280;33780;51.034;7.120;2023-05-20T11:25:12;101093.47;;;20.04;49.59
48015;BME280;33780;51.034;7.120;2023-05-20T11:27:51;101093.75;;;20.09;49.39
48015;BME280;33780;51.034;7.120;2023-05-20T11:30:17;101102.03;;;20.15;49.85
48015;BME280;33780;51.034;7.120;2023-05-20T11:32:59;101091.06;;;20.23;49.77
48015;BME280;33780;51.034;7.120;2023-05-20T11:35:31;101099.50;;;20.29;49.69
48015;BME280;33780;51.034;7.120;2023-05-20T11:38:05;101092.31;;;20.36;49.65
48015;BME280;33780;51.034;7.120;2023-05-20T11:40:36;101079.16;;;20.39;48.91
48015;BME280;33780;51.034;7.120;2023-05-20T11:43:02;101081.34;;;20.44;50.04
48015;BME280;33780;51.034;7.120;2023-05-20T11:45:41;101077.91;;;20.50;49.18
48015;BME280;33780;51.034;7.120;2023-05-20T11:48:13;101077.53;;;20.53;49.26
48015;BME280;33780;51.034;7.120;2023-05-20T11:50:55;101080.91;;;20.55;49.08
48015;BME280;33780;51.034;7.120;2023-05-20T11:53:22;101079.59;;;20.51;47.99
48015;BME280;33780;51.034;7.120;2023-05-20T11:55:52;101081.00;;;20.47;48.50
48015;BME280;33780;51.034;7.120;2023-05-20T11:58:25;101079.28;;;20.46;48.82
48015;BME280;33780;51.034;7.120;2023-05-20T12:00:54;101082.50;;;20.49;48.81
48015;BME280;33780;51.034;7.120;2023-05-20T12:03:23;101080.06;;;20.55;48.58
48015;BME280;33780;51.034;7.120;2023-05-20T12:05:49;101065.03;;;20.59;48.97
48015;BME280;33780;51.034;7.120;2023-05-20T12:08:17;101065.31;;;20.64;48.96
48015;BME280;33780;51.034;7.120;2023-05-20T12:10:52;101059.31;;;20.68;48.69
48015;BME280;33780;51.034;7.120;2023-05-20T12:13:17;101055.84;;;20.74;48.24
48015;BME280;33780;51.034;7.120;2023-05-20T12:15:43;101058.81;;;20.79;48.14
48015;BME280;33780;51.034;7.120;2023-05-20T12:18:12;101071.69;;;20.86;48.38
48015;BME280;33780;51.034;7.120;2023-05-20T12:20:37;101056.06;;;20.94;48.30
48015;BME280;33780;51.034;7.120;2023-05-20T12:23:06;101054.19;;;20.95;48.21
48015;BME280;33780;51.034;7.120;2023-05-20T12:25:37;101058.03;;;21.00;47.99
48015;BME280;33780;51.034;7.120;2023-05-20T12:28:02;101055.13;;;21.02;47.51
48015;BME280;33780;51.034;7.120;2023-05-20T12:30:28;101048.66;;;21.03;48.07
48015;BME280;33780;51.034;7.120;2023-05-20T12:32:53;101051.38;;;21.03;47.75
48015;BME280;33780;51.034;7.120;2023-05-20T12:35:34;101049.75;;;21.08;47.50
48015;BME280;33780;51.034;7.120;2023-05-20T12:38:00;101051.63;;;21.08;46.91
48015;BME280;33780;51.034;7.120;2023-05-20T12:40:28;101052.22;;;21.03;47.09
48015;BME280;33780;51.034;7.120;2023-05-20T12:42:53;101047.22;;;21.07;47.22
48015;BME280;33780;51.034;7.120;2023-05-20T12:45:19;101047.28;;;21.13;47.24
48015;BME280;33780;51.034;7.120;2023-05-20T12:47:47;101045.31;;;21.22;47.57
48015;BME280;33780;51.034;7.120;2023-05-20T12:50:15;101056.28;;;21.29;47.07
48015;BME280;33780;51.034;7.120;2023-05-20T12:52:41;101049.22;;;21.34;47.18
48015;BME280;33780;51.034;7.120;2023-05-20T12:55:06;101056.44;;;21.42;47.45
48015;BME280;33780;51.034;7.120;2023-05-20T12:57:40;101048.72;;;21.46;46.85
48015;BME280;33780;51.034;7.120;2023-05-20T13:00:10;101048.13;;;21.50;46.68
48015;BME280;33780;51.034;7.120;2023-05-20T13:02:36;101039.50;;;21.47;45.28
48015;BME280;33780;51.034;7.120;2023-05-20T13:05:02;101035.53;;;21.49;46.61
48015;BME280;33780;51.034;7.120;2023-05-20T13:07:50;101036.78;;;21.47;45.37
48015;BME280;33780;51.034;7.120;2023-05-20T13:11:29;101037.41;;;21.49;46.49
48015;BME280;33780;51.034;7.120;2023-05-20T13:13:57;101035.63;;;21.56;45.98